Flight Track Log - Related Links

Times and Time Zones

All times are in EDT time to prevent confusion due to time zone crossing. See the UAL582 flight status page for this flight to view local times or setup timezone preferences in your user account.

Time Position Orientation Groundspeed Altitude Reporting Facility
EDT Latitude Longitude Course Direction KTS MPH feet Rate Location/Type
Tue 05:58:54 PM 43.6500 -79.6833 257° West 170 196 2,300  Level Toronto Center
Tue 05:59:54 PM 43.6167 -79.7500 235° Southwest 240 276 4,100 2,650 Climbing Toronto Center
Tue 06:00:54 PM 43.6167 -79.8333 270° West 270 311 7,600 3,200 Climbing Toronto Center
Tue 06:01:00 PM 43.7160 -80.1582 277° West  Level FlightAware Approximate
Tue 06:01:54 PM 43.6333 -79.9500 281° West 280 322 10,500  Level Toronto Center
Tue 06:02:00 PM 43.7238 -80.2947 277° West  Level FlightAware Approximate
Tue 06:02:54 PM 43.6667 -80.0667 292° West 350 403 11,700  Level Toronto Center
Tue 06:03:00 PM 43.7333 -80.4311 270° West  Level FlightAware Approximate
Tue 06:03:54 PM 43.6833 -80.2167 279° West 360 414 14,500  Level Toronto Center
Tue 06:04:00 PM 43.7304 -80.5679 257° West  Level FlightAware Approximate
Tue 06:04:54 PM 43.7167 -80.3500 289° West 370 426 16,000  Level Toronto Center
Tue 06:05:54 PM 43.7333 -80.4833 280° West 380 437 19,100 2,100 Climbing Toronto Center
Tue 06:06:54 PM 43.7167 -80.6500 262° West 380 437 20,200 1,400 Climbing Toronto Center
Tue 06:07:54 PM 43.6833 -80.7833 251° West 410 472 21,900 1,600 Climbing Toronto Center
Tue 06:08:54 PM 43.6500 -80.9167 251° West 410 472 23,400 1,500 Climbing Toronto Center
Tue 06:09:54 PM 43.6167 -81.0833 255° West 420 483 24,900 1,350 Climbing Toronto Center
Tue 06:10:54 PM 43.5833 -81.2500 255° West 430 495 26,100 1,100 Climbing Toronto Center
Tue 06:11:54 PM 43.5500 -81.4000 253° West 440 506 27,100 1,000 Climbing Toronto Center
Tue 06:12:54 PM 43.5167 -81.5667 255° West 450 518 28,100 1,000 Climbing Toronto Center
Tue 06:13:54 PM 43.4667 -81.7500 249° West 460 529 29,100 1,050 Climbing Toronto Center
Tue 06:14:54 PM 43.4333 -81.9000 253° West 460 529 30,200 1,200 Climbing Toronto Center
Tue 06:15:54 PM 43.3833 -82.0833 249° West 460 529 31,500 1,250 Climbing Toronto Center
Tue 06:16:54 PM 43.3500 -82.2500 255° West 460 529 32,700 1,250 Climbing Toronto Center
Tue 06:17:54 PM 43.3167 -82.4000 253° West 450 518 34,000 650 Climbing Toronto Center
Tue 06:18:54 PM 43.2833 -82.5667 255° West 440 506 34,000  Level Toronto Center
Tue 06:19:54 PM 43.2500 -82.7500 256° West 430 495 34,000  Level Toronto Center
Tue 06:20:54 PM 43.2833 -82.8833 289° West 430 495 34,000 550 Level Toronto Center
Tue 06:21:54 PM 43.3333 -83.0333 295° West 420 483 35,100 1,000 Climbing Toronto Center
Tue 06:22:54 PM 43.3833 -83.1833 295° West 420 483 36,000 450 Climbing Toronto Center
Tue 06:23:54 PM 43.4000 -83.3333 279° West 420 483 36,000  Level Toronto Center
Tue 06:24:54 PM 43.4500 -83.5000 293° West 420 483 36,000  Level Toronto Center
Tue 06:25:54 PM 43.4833 -83.6333 289° West 420 483 36,000  Level Toronto Center
Tue 06:26:54 PM 43.5167 -83.8000 285° West 420 483 36,000  Level Toronto Center
Tue 06:27:54 PM 43.5667 -83.9333 297° West 420 483 36,000  Level Toronto Center
Tue 06:28:54 PM 43.6000 -84.1000 285° West 420 483 36,000  Level Toronto Center
Tue 06:29:30 PM 43.6258 -84.1514 305° West 418 481 36,000  Level Minneapolis Center
Tue 06:30:45 PM 43.6781 -84.3628 289° West 418 481 36,000 -44 Level Minneapolis Center
Tue 06:31:47 PM 43.7167 -84.5158 289° West 422 486 35,900 -48 Descending Minneapolis Center
Tue 06:32:49 PM 43.7439 -84.6747 283° West 428 493 35,900 -532 Level Minneapolis Center
Tue 06:33:51 PM 43.7267 -84.8669 263° West 421 484 34,800 -1,016 Descending Minneapolis Center
Tue 06:34:53 PM 43.7122 -85.0289 263° West 424 488 33,800 -1,355 Descending Minneapolis Center
Tue 06:35:55 PM 43.6700 -85.1811 249° West 430 495 32,000 -871 Descending Minneapolis Center
Tue 06:36:57 PM 43.5594 -85.2581 207° Southwest 447 514 32,000  Level Minneapolis Center
Tue 06:38:00 PM 43.4336 -85.2964 192° South 459 528 32,000  Level Minneapolis Center
Tue 06:39:02 PM 43.3083 -85.3356 193° South 460 529 32,000  Level Minneapolis Center
Tue 06:40:04 PM 43.1889 -85.4550 216° Southwest 445 512 32,000  Level Minneapolis Center
Tue 06:41:06 PM 43.1056 -85.5811 228° Southwest 445 512 32,000 -532 Level Minneapolis Center
Tue 06:42:08 PM 43.0217 -85.7064 228° Southwest 444 511 30,900 -1,463 Descending Minneapolis Center
Tue 06:43:09 PM 42.9531 -85.8083 227° Southwest 446 513 29,000 -2,468 Descending Minneapolis Center
Tue 06:44:12 PM 42.8525 -85.9600 228° Southwest 441 507 25,800 -3,360 Descending Minneapolis Center
Tue 06:45:14 PM 42.7728 -86.0817 228° Southwest 431 496 22,000 -2,305 Descending Minneapolis Center
Tue 06:46:43 PM 42.6467 -86.2742 228° Southwest 426 490 20,000 -1,272 Descending Chicago Center
Tue 06:47:45 PM 42.6178 -86.4222 255° West 406 467 18,800 -1,790 Descending Chicago Center
Tue 06:48:47 PM 42.5903 -86.5650 255° West 394 453 16,300 -1,548 Descending Chicago Center
Tue 06:49:49 PM 42.5658 -86.6939 256° West 361 415 15,600 -1,161 Descending Chicago Center
Tue 06:50:51 PM 42.5383 -86.8117 252° West 335 386 13,900 -1,839 Descending Chicago Center
Tue 06:51:53 PM 42.5067 -86.9247 249° West 324 373 11,800 -1,742 Descending Chicago Center
Tue 06:52:55 PM 42.4767 -87.0331 249° West 310 357 10,300 -1,065 Descending Chicago Center
Tue 06:53:57 PM 42.4428 -87.1544 249° West 287 330 9,600 -1,065 Descending Chicago Center
Tue 06:54:59 PM 42.4186 -87.2467 250° West 263 303 8,100 -1,452 Descending Chicago Center
Tue 06:56:01 PM 42.3928 -87.3364 249° West 258 297 6,600 -1,024 Descending Chicago Center
Tue 06:57:02 PM 42.3683 -87.4256 250° West 254 292 6,000 -293 Descending Chicago Center
Tue 06:58:04 PM 42.3439 -87.5133 249° West 250 288 6,000  Level Chicago Center
Tue 06:59:06 PM 42.2872 -87.5725 218° Southwest 259 298 6,000 -176 Level Chicago Center
Tue 07:00:20 PM 42.2117 -87.5658 176° South 273 314 5,600 -662 Descending Chicago Center
Tue 07:01:22 PM 42.1250 -87.5558 175° South 263 303 4,500 -774 Descending Chicago Center
Tue 07:02:24 PM 42.0739 -87.5850 203° Southwest 213 245 4,000 -532 Descending Chicago Center
Tue 07:03:26 PM 42.0319 -87.6297 218° Southwest 197 227 3,400 -488 Descending Chicago Center
Tue 07:04:27 PM 42.0025 -87.7017 241° Southwest 189 217 3,000 -393 Descending Chicago Center

Login

Don't have an account? Register now (free) for customized features, flight alerts, and more!